createdAt,value
2023-04-09T00:00:43.137Z,7.45
2023-04-09T00:03:09.637Z,6.72
2023-04-09T00:05:40.558Z,6.07
2023-04-09T00:08:07.376Z,6.72
2023-04-09T00:10:33.724Z,6.85
2023-04-09T00:13:00.173Z,5.78
2023-04-09T00:15:31.100Z,5.95
2023-04-09T00:17:58.232Z,6.60
2023-04-09T00:20:24.569Z,6.97
2023-04-09T00:22:51.710Z,8.02
2023-04-09T00:25:18.550Z,9.25
2023-04-09T00:27:44.890Z,9.77
2023-04-09T00:30:11.568Z,10.30
2023-04-09T00:32:37.907Z,10.07
2023-04-09T00:35:04.647Z,12.40
2023-04-09T00:37:31.262Z,14.00
2023-04-09T00:39:57.595Z,13.52
2023-04-09T00:42:24.046Z,13.40
2023-04-09T00:44:50.339Z,16.45
2023-04-09T00:47:17.405Z,16.30
2023-04-09T00:49:44.614Z,18.52
2023-04-09T00:52:11.017Z,20.30
2023-04-09T00:54:37.412Z,21.95
2023-04-09T00:57:03.804Z,19.75
2023-04-09T00:59:30.240Z,20.92
2023-04-09T01:01:56.812Z,20.63
2023-04-09T01:04:24.561Z,21.95
2023-04-09T01:06:53.795Z,20.80
2023-04-09T01:09:39.399Z,20.73
2023-04-09T01:12:16.261Z,19.88
2023-04-09T01:15:09.659Z,20.77
2023-04-09T01:17:43.506Z,22.83
2023-04-09T01:20:18.873Z,23.02
2023-04-09T01:23:03.662Z,25.45
2023-04-09T01:25:53.332Z,27.33
2023-04-09T01:28:25.545Z,26.00
2023-04-09T01:30:57.430Z,26.65
2023-04-09T01:33:25.290Z,24.15
2023-04-09T01:35:53.831Z,23.58
2023-04-09T01:38:21.786Z,25.55
2023-04-09T01:40:50.748Z,23.38
2023-04-09T01:43:18.940Z,22.52
2023-04-09T01:45:45.896Z,20.45
2023-04-09T01:50:43.166Z,20.10
2023-04-09T01:53:09.704Z,19.42
2023-04-09T01:55:35.987Z,19.85
2023-04-09T01:58:02.292Z,17.98
2023-04-09T02:00:35.862Z,20.17
2023-04-09T02:03:08.450Z,18.45
2023-04-09T02:05:44.491Z,18.88
2023-04-09T02:08:14.651Z,15.88
2023-04-09T02:10:44.708Z,15.70
2023-04-09T02:13:16.827Z,14.18
2023-04-09T02:15:43.669Z,12.15
2023-04-09T02:18:23.871Z,13.82
2023-04-09T02:20:50.507Z,12.60
2023-04-09T02:23:17.252Z,12.15
2023-04-09T02:25:44.049Z,13.13
2023-04-09T02:28:10.379Z,12.20
2023-04-09T02:30:36.677Z,11.63
2023-04-09T02:33:03.074Z,11.07
2023-04-09T02:35:29.411Z,11.10
2023-04-09T02:37:55.764Z,10.52
2023-04-09T02:40:22.170Z,10.18
2023-04-09T02:42:48.487Z,9.02
2023-04-09T02:45:14.833Z,9.40
2023-04-09T02:47:41.127Z,10.07
2023-04-09T02:50:07.955Z,8.20
2023-04-09T02:52:34.502Z,9.32
2023-04-09T02:55:00.801Z,9.20
2023-04-09T02:57:27.475Z,9.45
2023-04-09T02:59:53.800Z,9.50
2023-04-09T03:02:20.308Z,9.13
2023-04-09T03:04:46.805Z,9.02
2023-04-09T03:07:13.108Z,8.50
2023-04-09T03:09:39.933Z,8.60
2023-04-09T03:12:06.233Z,9.07
2023-04-09T03:14:34.179Z,9.60
2023-04-09T03:17:01.464Z,8.13
2023-04-09T03:19:27.747Z,7.85
2023-04-09T03:21:54.114Z,7.57
2023-04-09T03:24:20.414Z,8.00
2023-04-09T03:26:46.762Z,7.50
2023-04-09T03:29:13.039Z,8.52
2023-04-09T03:31:39.396Z,8.27
2023-04-09T03:34:05.902Z,7.85
2023-04-09T03:36:32.703Z,7.53
2023-04-09T03:39:00.315Z,7.03
2023-04-09T03:41:27.294Z,7.55
2023-04-09T03:43:53.611Z,7.53
2023-04-09T03:46:19.962Z,7.93
2023-04-09T03:48:46.248Z,7.53
2023-04-09T03:51:13.309Z,7.32
2023-04-09T03:56:06.869Z,7.18
2023-04-09T03:58:33.282Z,7.68
2023-04-09T04:00:59.782Z,7.15
2023-04-09T04:03:26.158Z,7.72
2023-04-09T04:05:52.469Z,7.90
2023-04-09T04:08:18.826Z,8.05
2023-04-09T04:10:45.289Z,7.95
2023-04-09T04:13:11.613Z,8.20
2023-04-09T04:15:42.004Z,8.20
2023-04-09T04:18:09.835Z,6.18
2023-04-09T04:20:37.326Z,6.65
2023-04-09T04:23:04.277Z,7.65
2023-04-09T04:25:31.296Z,6.88
2023-04-09T04:27:57.816Z,7.53
2023-04-09T04:30:24.126Z,6.47
2023-04-09T04:32:50.712Z,7.72
2023-04-09T04:35:17.236Z,7.65
2023-04-09T04:37:43.553Z,7.75
2023-04-09T04:40:10.114Z,7.65
2023-04-09T04:42:36.392Z,7.72
2023-04-09T04:45:02.742Z,7.97
2023-04-09T04:47:29.018Z,7.82
2023-04-09T04:49:55.416Z,8.80
2023-04-09T04:52:21.822Z,8.05
2023-04-09T04:54:48.096Z,8.30
2023-04-09T04:57:14.531Z,7.38
2023-04-09T04:59:40.983Z,7.65
2023-04-09T05:02:08.622Z,7.85
2023-04-09T05:04:35.256Z,7.45
2023-04-09T05:07:01.562Z,7.00
2023-04-09T05:09:27.962Z,7.75
2023-04-09T05:11:54.327Z,7.65
2023-04-09T05:14:24.030Z,7.78
2023-04-09T05:16:52.172Z,8.10
2023-04-09T05:19:18.475Z,7.20
2023-04-09T05:21:46.749Z,7.28
2023-04-09T05:24:13.650Z,7.28
2023-04-09T05:26:39.944Z,7.85
2023-04-09T05:29:06.536Z,8.93
2023-04-09T05:31:32.886Z,7.97
2023-04-09T05:33:59.228Z,8.75
2023-04-09T05:36:26.167Z,8.70
2023-04-09T05:38:52.860Z,8.48
2023-04-09T05:41:19.282Z,9.27
2023-04-09T05:43:45.564Z,8.18
2023-04-09T05:46:12.430Z,8.55
2023-04-09T05:48:38.813Z,8.48
2023-04-09T05:51:05.167Z,8.63
2023-04-09T05:53:32.368Z,9.85
2023-04-09T05:55:58.836Z,9.35
2023-04-09T05:58:25.154Z,8.70
2023-04-09T06:00:52.459Z,8.50
2023-04-09T06:03:19.313Z,9.48
2023-04-09T06:08:14.056Z,7.53
2023-04-09T06:10:41.432Z,8.55
2023-04-09T06:13:08.094Z,8.90
2023-04-09T06:15:34.423Z,8.48
2023-04-09T06:18:01.218Z,8.98
2023-04-09T06:20:27.546Z,8.98
2023-04-09T06:22:53.839Z,8.32
2023-04-09T06:25:20.160Z,10.02
2023-04-09T06:27:46.474Z,9.38
2023-04-09T06:30:13.025Z,9.45
2023-04-09T06:32:51.124Z,9.98
2023-04-09T06:35:19.894Z,8.52
2023-04-09T06:37:46.358Z,8.68
2023-04-09T06:40:12.933Z,8.38
2023-04-09T06:42:39.356Z,9.48
2023-04-09T06:45:08.438Z,9.27
2023-04-09T06:47:35.969Z,9.80
2023-04-09T06:50:02.588Z,9.90
2023-04-09T06:52:28.984Z,10.38
2023-04-09T06:54:55.402Z,8.95
2023-04-09T06:57:21.694Z,10.75
2023-04-09T06:59:47.963Z,10.50
2023-04-09T07:02:14.370Z,10.40
2023-04-09T07:04:41.374Z,10.38
2023-04-09T07:07:07.682Z,9.68
2023-04-09T07:09:33.995Z,10.85
2023-04-09T07:12:00.500Z,10.18
2023-04-09T07:14:26.774Z,10.25
2023-04-09T07:16:53.036Z,9.65
2023-04-09T07:19:19.326Z,10.30
2023-04-09T07:21:45.690Z,11.07
2023-04-09T07:24:11.974Z,11.80
2023-04-09T07:26:38.247Z,12.15
2023-04-09T07:29:04.972Z,11.95
2023-04-09T07:31:32.810Z,12.45
2023-04-09T07:34:00.788Z,12.48
2023-04-09T07:38:54.735Z,12.02
2023-04-09T07:41:21.544Z,12.30
2023-04-09T07:43:47.990Z,12.57
2023-04-09T07:46:21.695Z,11.95
2023-04-09T07:48:49.845Z,11.52
2023-04-09T07:51:16.341Z,11.65
2023-04-09T07:53:42.642Z,11.52
2023-04-09T07:56:08.945Z,12.73
2023-04-09T07:58:37.794Z,11.50
2023-04-09T08:01:04.325Z,10.63
2023-04-09T08:03:30.892Z,11.35
2023-04-09T08:08:23.908Z,11.43
2023-04-09T08:10:50.628Z,12.25
2023-04-09T08:15:43.210Z,12.52
2023-04-09T08:18:10.049Z,10.98
2023-04-09T08:20:36.538Z,12.15
2023-04-09T08:23:02.894Z,12.10
2023-04-09T08:25:29.201Z,11.15
2023-04-09T08:27:55.716Z,11.75
2023-04-09T08:30:22.001Z,11.18
2023-04-09T08:32:48.554Z,11.75
2023-04-09T08:37:41.214Z,11.63
2023-04-09T08:40:08.691Z,12.23
2023-04-09T08:42:36.803Z,11.93
2023-04-09T08:45:06.865Z,11.23
2023-04-09T08:47:36.410Z,11.85
2023-04-09T08:50:02.813Z,11.60
2023-04-09T08:52:33.582Z,11.20
2023-04-09T08:55:00.173Z,11.45
2023-04-09T08:59:53.035Z,11.65
2023-04-09T09:02:19.397Z,12.10
2023-04-09T09:07:13.304Z,10.48
2023-04-09T09:09:58.004Z,11.20
2023-04-09T09:12:51.629Z,9.98
2023-04-09T09:15:28.692Z,10.60
2023-04-09T09:17:57.066Z,10.35
2023-04-09T09:20:24.480Z,10.13
2023-04-09T09:22:55.898Z,9.80
2023-04-09T09:25:23.261Z,9.52
2023-04-09T09:27:49.599Z,9.43
2023-04-09T09:30:23.970Z,9.35
2023-04-09T09:33:07.570Z,9.52
2023-04-09T09:35:54.234Z,8.88
2023-04-09T09:38:21.138Z,9.15
2023-04-09T09:40:47.742Z,8.70
2023-04-09T09:45:41.943Z,8.90
2023-04-09T09:48:11.246Z,8.80
2023-04-09T09:50:39.305Z,8.88
2023-04-09T09:53:07.148Z,7.97
2023-04-09T09:55:37.893Z,7.15
2023-04-09T09:58:24.649Z,9.20
2023-04-09T10:00:52.668Z,9.05
2023-04-09T10:03:27.903Z,6.05
2023-04-09T10:05:55.033Z,6.38
2023-04-09T10:08:22.269Z,8.45
2023-04-09T10:10:50.147Z,7.78
2023-04-09T10:13:25.463Z,8.75
2023-04-09T10:15:52.178Z,8.00
2023-04-09T10:18:19.255Z,8.70
2023-04-09T10:21:01.715Z,8.50
2023-04-09T10:23:38.638Z,7.75
2023-04-09T10:26:05.800Z,7.63
2023-04-09T10:28:32.325Z,8.38
2023-04-09T10:33:27.823Z,8.02
2023-04-09T10:35:59.538Z,7.93
2023-04-09T10:38:41.070Z,8.68
2023-04-09T10:41:16.815Z,8.60
2023-04-09T10:43:43.374Z,7.55
2023-04-09T10:46:30.065Z,6.40
2023-04-09T10:49:15.702Z,6.70
2023-04-09T10:51:47.677Z,6.63
2023-04-09T10:54:32.661Z,6.95
2023-04-09T10:57:08.146Z,7.75
2023-04-09T10:59:36.235Z,7.45
2023-04-09T11:02:06.877Z,7.40
2023-04-09T11:04:56.334Z,6.80
2023-04-09T11:07:25.000Z,7.03
2023-04-09T11:09:51.420Z,6.60
2023-04-09T11:12:17.690Z,7.10
2023-04-09T11:14:44.199Z,5.93
2023-04-09T11:17:10.787Z,6.47
2023-04-09T11:22:06.546Z,6.70
2023-04-09T11:24:46.670Z,6.80
2023-04-09T11:27:13.319Z,5.82
2023-04-09T11:29:39.620Z,6.32
2023-04-09T11:32:06.029Z,6.75
2023-04-09T11:34:32.429Z,6.22
2023-04-09T11:36:59.800Z,6.63
2023-04-09T11:39:26.340Z,5.85
2023-04-09T11:44:21.639Z,5.47
2023-04-09T11:46:49.144Z,6.05
2023-04-09T11:49:16.455Z,5.57
2023-04-09T11:51:42.912Z,5.65
2023-04-09T11:54:09.209Z,4.95
2023-04-09T11:56:36.648Z,5.28
2023-04-09T11:59:03.384Z,5.70
2023-04-09T12:01:33.476Z,5.38
2023-04-09T12:04:01.370Z,5.10
2023-04-09T12:06:28.476Z,4.88
2023-04-09T12:08:56.527Z,5.68
2023-04-09T12:11:29.024Z,6.03
2023-04-09T12:13:59.759Z,5.10
2023-04-09T12:16:26.107Z,6.05
2023-04-09T12:18:55.732Z,5.40
2023-04-09T12:21:27.534Z,5.18
2023-04-09T12:23:53.860Z,5.68
2023-04-09T12:26:20.867Z,5.28
2023-04-09T12:28:47.500Z,4.47
2023-04-09T12:31:13.777Z,5.47
2023-04-09T12:33:40.558Z,4.85
2023-04-09T12:36:07.022Z,5.50
2023-04-09T12:38:33.409Z,5.55
2023-04-09T12:40:59.722Z,5.63
2023-04-09T12:43:26.300Z,5.45
2023-04-09T12:48:19.555Z,6.30
2023-04-09T12:50:45.893Z,5.90
2023-04-09T12:53:12.238Z,5.70
2023-04-09T12:55:39.468Z,5.57
2023-04-09T12:58:06.666Z,5.90
2023-04-09T13:00:33.421Z,5.78
2023-04-09T13:02:59.970Z,5.47
2023-04-09T13:05:26.379Z,5.10
2023-04-09T13:07:52.634Z,4.65
2023-04-09T13:10:18.960Z,5.70
2023-04-09T13:12:45.254Z,4.97
2023-04-09T13:15:11.739Z,5.10
2023-04-09T13:17:38.090Z,5.15
2023-04-09T13:20:04.882Z,4.93
2023-04-09T13:22:31.266Z,5.72
2023-04-09T13:24:57.565Z,5.13
2023-04-09T13:27:23.910Z,5.25
2023-04-09T13:32:18.150Z,5.10
2023-04-09T13:34:44.451Z,4.72
2023-04-09T13:37:10.802Z,4.82
2023-04-09T13:39:37.108Z,5.03
2023-04-09T13:42:12.773Z,4.72
2023-04-09T13:44:42.187Z,5.13
2023-04-09T13:47:11.056Z,5.50
2023-04-09T13:49:37.387Z,5.40
2023-04-09T13:52:04.884Z,5.05
2023-04-09T13:54:32.094Z,6.13
2023-04-09T13:56:58.373Z,5.32
2023-04-09T13:59:24.742Z,5.30
2023-04-09T14:01:51.185Z,5.50
2023-04-09T14:06:44.384Z,5.00
2023-04-09T14:09:11.464Z,5.15
2023-04-09T14:11:38.126Z,5.40
2023-04-09T14:14:04.786Z,5.18
2023-04-09T14:16:31.251Z,5.22
2023-04-09T14:18:58.124Z,8.65
2023-04-09T14:21:25.038Z,5.63
2023-04-09T14:23:51.421Z,4.80
2023-04-09T14:26:18.863Z,5.47
2023-04-09T14:28:47.004Z,4.88
2023-04-09T14:31:14.231Z,5.18
2023-04-09T14:33:41.040Z,5.05
2023-04-09T14:36:07.659Z,4.72
2023-04-09T14:38:34.772Z,4.30
2023-04-09T14:41:01.185Z,4.25
2023-04-09T14:45:54.363Z,4.88
2023-04-09T14:48:20.818Z,4.68
2023-04-09T14:53:14.371Z,3.97
2023-04-09T14:55:40.873Z,3.40
2023-04-09T15:00:34.553Z,4.35
2023-04-09T15:05:27.741Z,3.80
2023-04-09T15:07:55.361Z,3.45
2023-04-09T15:10:21.727Z,3.75
2023-04-09T15:12:48.079Z,3.65
2023-04-09T15:15:14.517Z,4.15
2023-04-09T15:20:07.824Z,3.78
2023-04-09T15:22:34.381Z,3.95
2023-04-09T15:25:01.246Z,3.22
2023-04-09T15:27:27.625Z,3.97
2023-04-09T15:29:53.904Z,3.35
2023-04-09T15:32:21.206Z,2.67
2023-04-09T15:34:47.497Z,3.72
2023-04-09T15:37:13.775Z,2.97
2023-04-09T15:39:40.398Z,3.25
2023-04-09T15:42:08.599Z,3.30
2023-04-09T15:44:36.398Z,2.85
2023-04-09T15:47:02.760Z,2.95
2023-04-09T15:49:29.037Z,2.88
2023-04-09T15:51:55.372Z,3.13
2023-04-09T15:54:21.664Z,2.92
2023-04-09T15:56:47.972Z,3.38
2023-04-09T15:59:14.289Z,3.30
2023-04-09T16:01:40.680Z,2.85
2023-04-09T16:04:08.920Z,2.47
2023-04-09T16:06:35.408Z,3.13
2023-04-09T16:11:28.335Z,3.15
2023-04-09T16:16:22.668Z,3.40
2023-04-09T16:18:49.256Z,3.80
2023-04-09T16:21:15.614Z,3.20
2023-04-09T16:23:41.976Z,3.22
2023-04-09T16:28:34.599Z,3.60
2023-04-09T16:31:01.062Z,3.40
2023-04-09T16:33:27.694Z,3.80
2023-04-09T16:35:54.067Z,3.40
2023-04-09T16:40:50.337Z,3.70
2023-04-09T16:43:16.683Z,3.67
2023-04-09T16:45:42.994Z,3.58
2023-04-09T16:48:12.225Z,3.60
2023-04-09T16:50:39.944Z,3.40
2023-04-09T16:53:06.569Z,3.85
2023-04-09T16:55:33.516Z,3.28
2023-04-09T16:57:59.816Z,3.00
2023-04-09T17:00:27.310Z,3.25
2023-04-09T17:02:55.543Z,3.20
2023-04-09T17:05:22.425Z,3.60
2023-04-09T17:07:49.177Z,3.10
2023-04-09T17:10:15.601Z,3.70
2023-04-09T17:12:42.139Z,3.60
2023-04-09T17:17:35.691Z,3.53
2023-04-09T17:20:02.013Z,3.85
2023-04-09T17:22:28.390Z,3.83
2023-04-09T17:24:54.703Z,3.15
2023-04-09T17:27:21.022Z,3.33
2023-04-09T17:29:47.367Z,4.22
2023-04-09T17:32:13.660Z,3.70
2023-04-09T17:34:40.189Z,3.10
2023-04-09T17:39:33.488Z,3.65
2023-04-09T17:42:01.549Z,2.85
2023-04-09T17:44:28.016Z,3.08
2023-04-09T17:49:22.400Z,3.80
2023-04-09T17:51:48.917Z,2.92
2023-04-09T17:56:41.871Z,3.45
2023-04-09T17:59:08.257Z,3.55
2023-04-09T18:01:34.682Z,4.40
2023-04-09T18:04:01.633Z,3.60
2023-04-09T18:06:28.294Z,3.05
2023-04-09T18:08:54.617Z,3.28
2023-04-09T18:11:21.067Z,3.83
2023-04-09T18:13:47.361Z,3.67
2023-04-09T18:16:13.736Z,3.28
2023-04-09T18:18:40.240Z,3.17
2023-04-09T18:21:06.869Z,3.75
2023-04-09T18:25:59.825Z,4.03
2023-04-09T18:28:26.263Z,3.72
2023-04-09T18:30:53.999Z,3.67
2023-04-09T18:33:20.898Z,3.97
2023-04-09T18:35:47.266Z,3.80
2023-04-09T18:38:13.661Z,3.55
2023-04-09T18:40:43.874Z,3.95
2023-04-09T18:43:12.290Z,3.80
2023-04-09T18:45:41.655Z,3.83
2023-04-09T18:48:08.852Z,4.10
2023-04-09T18:50:35.588Z,3.72
2023-04-09T18:55:30.141Z,5.30
2023-04-09T18:57:57.325Z,4.18
2023-04-09T19:00:23.983Z,4.35
2023-04-09T19:02:50.502Z,3.88
2023-04-09T19:07:43.752Z,3.80
2023-04-09T19:10:10.290Z,5.10
2023-04-09T19:12:37.458Z,4.00
2023-04-09T19:15:04.826Z,4.00
2023-04-09T19:17:31.940Z,4.43
2023-04-09T19:19:58.353Z,3.97
2023-04-09T19:22:24.770Z,4.32
2023-04-09T19:24:51.130Z,4.15
2023-04-09T19:27:18.534Z,4.75
2023-04-09T19:29:46.152Z,4.65
2023-04-09T19:32:13.277Z,4.70
2023-04-09T19:34:39.750Z,4.30
2023-04-09T19:37:06.172Z,4.47
2023-04-09T19:39:32.554Z,4.13
2023-04-09T19:41:58.879Z,5.43
2023-04-09T19:44:25.389Z,4.95
2023-04-09T19:46:51.727Z,3.58
2023-04-09T19:49:18.043Z,4.65
2023-04-09T19:51:44.339Z,3.97
2023-04-09T19:54:10.828Z,4.20
2023-04-09T19:56:38.119Z,3.95
2023-04-09T19:59:04.601Z,4.88
2023-04-09T20:01:31.077Z,5.32
2023-04-09T20:03:57.741Z,4.90
2023-04-09T20:06:24.280Z,4.30
2023-04-09T20:08:51.072Z,4.13
2023-04-09T20:11:18.243Z,4.00
2023-04-09T20:13:45.002Z,4.35
2023-04-09T20:16:11.304Z,4.43
2023-04-09T20:18:37.581Z,4.18
2023-04-09T20:21:04.052Z,4.00
2023-04-09T20:23:30.341Z,4.43
2023-04-09T20:25:56.815Z,4.20
2023-04-09T20:28:23.298Z,3.97
2023-04-09T20:30:49.825Z,4.10
2023-04-09T20:33:17.655Z,5.22
2023-04-09T20:35:44.036Z,4.70
2023-04-09T20:38:10.349Z,4.03
2023-04-09T20:40:37.481Z,4.35
2023-04-09T20:43:04.053Z,4.10
2023-04-09T20:45:30.430Z,4.43
2023-04-09T20:47:57.034Z,4.28
2023-04-09T20:50:23.470Z,4.43
2023-04-09T20:52:49.829Z,4.90
2023-04-09T20:55:16.252Z,4.78
2023-04-09T20:57:42.564Z,4.00
2023-04-09T21:00:10.073Z,4.80
2023-04-09T21:02:36.768Z,4.82
2023-04-09T21:05:11.709Z,4.28
2023-04-09T21:07:48.096Z,5.05
2023-04-09T21:10:14.446Z,4.18
2023-04-09T21:12:40.773Z,4.97
2023-04-09T21:15:07.718Z,4.38
2023-04-09T21:17:34.218Z,4.57
2023-04-09T21:20:00.607Z,4.65
2023-04-09T21:22:27.129Z,4.88
2023-04-09T21:24:54.079Z,4.70
2023-04-09T21:29:46.655Z,4.63
2023-04-09T21:32:13.049Z,4.55
2023-04-09T21:34:39.514Z,5.15
2023-04-09T21:37:06.333Z,5.88
2023-04-09T21:39:32.684Z,5.05
2023-04-09T21:41:59.016Z,4.55
2023-04-09T21:44:25.374Z,4.80
2023-04-09T21:46:52.156Z,4.28
2023-04-09T21:49:18.446Z,4.28
2023-04-09T21:51:45.743Z,5.30
2023-04-09T21:54:12.065Z,4.20
2023-04-09T21:56:38.809Z,4.30
2023-04-09T21:59:05.556Z,4.78
2023-04-09T22:01:34.407Z,5.72
2023-04-09T22:04:04.491Z,4.65
2023-04-09T22:06:31.132Z,4.25
2023-04-09T22:08:57.996Z,4.63
2023-04-09T22:11:29.263Z,6.63
2023-04-09T22:13:57.050Z,5.30
2023-04-09T22:16:24.218Z,5.55
2023-04-09T22:18:51.462Z,6.10
2023-04-09T22:21:18.023Z,5.75
2023-04-09T22:23:44.396Z,6.28
2023-04-09T22:26:10.785Z,5.43
2023-04-09T22:28:37.186Z,5.78
2023-04-09T22:31:03.650Z,5.53
2023-04-09T22:33:30.028Z,5.35
2023-04-09T22:35:56.630Z,5.47
2023-04-09T22:38:23.192Z,5.20
2023-04-09T22:40:49.922Z,5.47
2023-04-09T22:43:17.120Z,5.13
2023-04-09T22:45:50.995Z,5.57
2023-04-09T22:48:18.348Z,4.93
2023-04-09T22:50:45.468Z,5.00
2023-04-09T22:53:12.107Z,5.60
2023-04-09T22:55:38.478Z,4.80
2023-04-09T22:58:04.832Z,5.72
2023-04-09T23:00:31.198Z,5.32
2023-04-09T23:02:57.644Z,5.43
2023-04-09T23:05:24.015Z,5.75
2023-04-09T23:07:51.121Z,5.45
2023-04-09T23:10:17.543Z,5.18
2023-04-09T23:12:43.982Z,4.88
2023-04-09T23:15:11.213Z,5.88
2023-04-09T23:17:37.592Z,6.13
2023-04-09T23:20:04.226Z,6.15
2023-04-09T23:22:30.528Z,6.05
2023-04-09T23:24:56.868Z,5.72
2023-04-09T23:27:28.188Z,5.40
2023-04-09T23:29:57.723Z,5.60
2023-04-09T23:32:24.874Z,5.68
2023-04-09T23:34:51.342Z,5.68
2023-04-09T23:37:19.096Z,5.10
2023-04-09T23:39:48.289Z,6.00
2023-04-09T23:42:14.631Z,6.45
2023-04-09T23:44:41.286Z,6.13
2023-04-09T23:47:07.614Z,5.47
2023-04-09T23:49:34.026Z,5.18
2023-04-09T23:52:00.362Z,5.18
2023-04-09T23:54:26.957Z,5.20
2023-04-09T23:56:53.250Z,5.35
2023-04-09T23:59:19.546Z,5.50
